createdAt,value
2018-02-23T00:02:22.682Z,9.53
2018-02-23T00:04:51.063Z,9.77
2018-02-23T00:07:19.466Z,10.73
2018-02-23T00:09:47.055Z,10.03
2018-02-23T00:12:14.675Z,11.30
2018-02-23T00:14:42.320Z,10.37
2018-02-23T00:17:11.294Z,10.50
2018-02-23T00:19:38.935Z,10.60
2018-02-23T00:22:06.533Z,9.97
2018-02-23T00:24:34.898Z,10.77
2018-02-23T00:27:03.314Z,10.77
2018-02-23T00:29:30.982Z,10.87
2018-02-23T00:31:58.604Z,11.37
2018-02-23T00:34:27.002Z,10.50
2018-02-23T00:36:54.640Z,11.03
2018-02-23T00:39:23.653Z,11.03
2018-02-23T00:41:51.290Z,10.53
2018-02-23T00:44:19.669Z,11.17
2018-02-23T00:46:48.659Z,11.20
2018-02-23T00:49:17.066Z,11.10
2018-02-23T00:51:44.674Z,11.30
2018-02-23T00:54:12.326Z,12.77
2018-02-23T00:56:39.974Z,10.97
2018-02-23T00:59:07.650Z,11.67
2018-02-23T01:01:35.273Z,11.13
2018-02-23T01:04:02.864Z,11.97
2018-02-23T01:06:30.502Z,12.53
2018-02-23T01:08:58.124Z,11.67
2018-02-23T01:11:26.533Z,12.33
2018-02-23T01:13:54.318Z,12.27
2018-02-23T01:16:21.974Z,11.57
2018-02-23T01:18:49.597Z,11.87
2018-02-23T01:21:18.195Z,11.80
2018-02-23T01:23:45.806Z,12.90
2018-02-23T01:26:13.429Z,11.97
2018-02-23T01:28:41.119Z,11.60
2018-02-23T01:31:08.794Z,12.53
2018-02-23T01:33:36.431Z,11.83
2018-02-23T01:36:04.113Z,12.10
2018-02-23T01:38:31.713Z,12.30
2018-02-23T01:40:59.326Z,11.57
2018-02-23T01:43:26.975Z,10.90
2018-02-23T01:45:54.568Z,11.30
2018-02-23T01:48:22.248Z,10.20
2018-02-23T01:51:02.002Z,10.20
2018-02-23T01:53:29.722Z,10.37
2018-02-23T01:55:57.368Z,9.97
2018-02-23T01:58:25.047Z,9.80
2018-02-23T02:00:52.706Z,11.03
2018-02-23T02:03:20.771Z,10.27
2018-02-23T02:05:48.624Z,11.07
2018-02-23T02:08:16.297Z,10.03
2018-02-23T02:13:08.776Z,10.17
2018-02-23T02:15:37.224Z,11.23
2018-02-23T02:18:04.831Z,11.27
2018-02-23T02:20:33.274Z,10.87
2018-02-23T02:23:00.874Z,10.40
2018-02-23T02:25:28.515Z,10.60
2018-02-23T02:27:56.903Z,11.47
2018-02-23T02:30:25.283Z,10.63
2018-02-23T02:32:52.990Z,11.47
2018-02-23T02:35:20.608Z,10.93
2018-02-23T02:37:49.086Z,11.37
2018-02-23T02:40:16.865Z,10.07
2018-02-23T02:42:45.120Z,11.53
2018-02-23T02:45:16.544Z,12.57
2018-02-23T02:47:44.153Z,11.30
2018-02-23T02:50:14.254Z,11.50
2018-02-23T02:52:41.895Z,11.70
2018-02-23T02:55:10.287Z,11.33
2018-02-23T02:57:38.787Z,11.47
2018-02-23T03:00:06.510Z,12.10
2018-02-23T03:02:34.889Z,11.20
2018-02-23T03:05:03.290Z,11.93
2018-02-23T03:07:31.656Z,11.77
2018-02-23T03:10:00.074Z,12.50
2018-02-23T03:12:27.730Z,12.70
2018-02-23T03:14:55.392Z,13.00
2018-02-23T03:17:25.881Z,13.67
2018-02-23T03:19:54.803Z,12.10
2018-02-23T03:22:22.460Z,13.03
2018-02-23T03:24:50.095Z,12.57
2018-02-23T03:27:18.536Z,13.07
2018-02-23T03:29:46.219Z,13.00
2018-02-23T03:32:13.859Z,13.07
2018-02-23T03:34:41.497Z,12.10
2018-02-23T03:37:09.251Z,12.00
2018-02-23T03:39:37.240Z,13.23
2018-02-23T03:42:04.890Z,13.33
2018-02-23T03:44:32.531Z,12.60
2018-02-23T03:47:00.127Z,13.00
2018-02-23T03:49:27.771Z,12.87
2018-02-23T03:51:55.374Z,12.83
2018-02-23T03:54:32.726Z,14.60
2018-02-23T03:57:00.477Z,15.17
2018-02-23T03:59:28.161Z,14.50
2018-02-23T04:01:55.780Z,15.80
2018-02-23T04:04:23.426Z,14.53
2018-02-23T04:06:51.822Z,14.50
2018-02-23T04:09:19.483Z,14.77
2018-02-23T04:11:47.085Z,16.30
2018-02-23T04:14:14.790Z,15.97
2018-02-23T04:16:43.211Z,15.87
2018-02-23T04:19:10.821Z,15.43
2018-02-23T04:21:39.236Z,14.87
2018-02-23T04:24:06.846Z,14.30
2018-02-23T04:26:35.294Z,16.57
2018-02-23T04:29:02.989Z,15.57
2018-02-23T04:31:32.185Z,17.03
2018-02-23T04:33:59.792Z,17.63
2018-02-23T04:36:27.438Z,17.70
2018-02-23T04:38:55.088Z,17.50
2018-02-23T04:41:23.500Z,17.40
2018-02-23T04:43:51.106Z,17.93
2018-02-23T04:46:18.758Z,18.27
2018-02-23T04:48:46.407Z,18.10
2018-02-23T04:51:14.018Z,19.87
2018-02-23T04:53:42.266Z,19.77
2018-02-23T04:56:09.914Z,18.97
2018-02-23T04:58:37.552Z,19.37
2018-02-23T05:01:05.163Z,19.73
2018-02-23T05:03:33.525Z,19.07
2018-02-23T05:06:02.507Z,20.33
2018-02-23T05:08:30.110Z,20.43
2018-02-23T05:10:57.773Z,21.20
2018-02-23T05:13:25.387Z,21.03
2018-02-23T05:15:53.028Z,20.63
2018-02-23T05:18:20.686Z,22.40
2018-02-23T05:20:48.282Z,19.90
2018-02-23T05:23:16.655Z,20.37
2018-02-23T05:25:45.090Z,20.43
2018-02-23T05:28:12.894Z,20.87
2018-02-23T05:30:40.551Z,21.00
2018-02-23T05:33:08.495Z,20.57
2018-02-23T05:35:36.083Z,22.70
2018-02-23T05:38:04.522Z,20.80
2018-02-23T05:40:32.149Z,21.87
2018-02-23T05:43:00.416Z,20.70
2018-02-23T05:45:28.799Z,22.17
2018-02-23T05:47:56.420Z,20.70
2018-02-23T05:50:24.057Z,22.30
2018-02-23T05:52:51.670Z,20.50
2018-02-23T05:55:20.041Z,20.70
2018-02-23T05:57:48.460Z,22.40
2018-02-23T06:00:16.071Z,21.43
2018-02-23T06:02:43.671Z,20.07
2018-02-23T06:05:11.331Z,21.10
2018-02-23T06:07:38.923Z,21.63
2018-02-23T06:10:06.535Z,21.73
2018-02-23T06:12:34.927Z,20.83
2018-02-23T06:15:02.540Z,20.40
2018-02-23T06:17:35.899Z,21.67
2018-02-23T06:20:08.564Z,22.67
2018-02-23T06:22:36.223Z,22.40
2018-02-23T06:25:04.120Z,21.63
2018-02-23T06:27:31.847Z,22.33
2018-02-23T06:29:59.484Z,23.50
2018-02-23T06:32:27.890Z,23.27
2018-02-23T06:34:55.524Z,23.03
2018-02-23T06:37:23.948Z,23.17
2018-02-23T06:39:51.538Z,22.13
2018-02-23T06:42:19.146Z,21.50
2018-02-23T06:44:47.535Z,21.43
2018-02-23T06:47:15.156Z,20.97
2018-02-23T06:49:43.548Z,23.70
2018-02-23T06:52:12.768Z,20.70
2018-02-23T06:54:40.377Z,21.87
2018-02-23T06:57:07.993Z,23.50
2018-02-23T06:59:35.634Z,21.93
2018-02-23T07:02:04.004Z,21.73
2018-02-23T07:04:32.383Z,20.93
2018-02-23T07:07:01.726Z,21.60
2018-02-23T07:09:29.976Z,21.70
2018-02-23T07:11:57.817Z,20.03
2018-02-23T07:14:26.226Z,20.30
2018-02-23T07:16:53.842Z,20.93
2018-02-23T07:19:21.448Z,22.17
2018-02-23T07:21:49.185Z,22.30
2018-02-23T07:24:18.357Z,22.43
2018-02-23T07:26:47.626Z,20.73
2018-02-23T07:29:15.276Z,20.67
2018-02-23T07:31:42.901Z,21.73
2018-02-23T07:34:11.258Z,20.07
2018-02-23T07:36:39.674Z,20.53
2018-02-23T07:39:07.304Z,22.07
2018-02-23T07:41:34.986Z,20.20
2018-02-23T07:44:02.757Z,20.77
2018-02-23T07:46:30.473Z,20.43
2018-02-23T07:48:58.093Z,21.53
2018-02-23T07:51:25.822Z,21.53
2018-02-23T07:53:54.473Z,20.10
2018-02-23T07:56:22.142Z,21.63
2018-02-23T07:58:49.747Z,21.23
2018-02-23T08:01:17.340Z,21.57
2018-02-23T08:03:44.974Z,21.57
2018-02-23T08:06:12.580Z,21.07
2018-02-23T08:08:41.857Z,22.37
2018-02-23T08:11:09.637Z,20.30
2018-02-23T08:13:37.258Z,23.23
2018-02-23T08:16:04.899Z,21.40
2018-02-23T08:18:32.527Z,22.90
2018-02-23T08:21:00.128Z,20.80
2018-02-23T08:23:27.730Z,21.30
2018-02-23T08:25:55.404Z,19.33
2018-02-23T08:28:23.006Z,23.70
2018-02-23T08:30:50.672Z,20.57
2018-02-23T08:33:18.390Z,23.97
2018-02-23T08:35:46.012Z,21.10
2018-02-23T08:38:13.709Z,22.10
2018-02-23T08:40:41.696Z,21.20
2018-02-23T08:43:11.071Z,24.37
2018-02-23T08:45:38.691Z,21.47
2018-02-23T08:48:06.915Z,21.57
2018-02-23T08:50:35.315Z,22.40
2018-02-23T08:53:03.002Z,22.53
2018-02-23T08:55:30.740Z,23.47
2018-02-23T08:57:59.270Z,21.93
2018-02-23T09:00:26.919Z,22.27
2018-02-23T09:02:54.520Z,20.10
2018-02-23T09:05:22.258Z,19.37
2018-02-23T09:07:50.007Z,21.23
2018-02-23T09:10:17.607Z,22.10
2018-02-23T09:12:46.181Z,23.13
2018-02-23T09:15:13.802Z,19.03
2018-02-23T09:17:41.401Z,20.50
2018-02-23T09:20:09.019Z,19.33
2018-02-23T09:22:36.621Z,19.00
2018-02-23T09:25:04.405Z,19.17
2018-02-23T09:27:32.881Z,18.53
2018-02-23T09:30:01.316Z,17.67
2018-02-23T09:32:37.990Z,16.53
2018-02-23T09:35:05.587Z,18.60
2018-02-23T09:37:33.311Z,16.50
2018-02-23T09:40:00.946Z,16.60
2018-02-23T09:42:28.631Z,17.80
2018-02-23T09:44:56.235Z,16.00
2018-02-23T09:47:24.624Z,15.93
2018-02-23T09:49:53.055Z,17.77
2018-02-23T09:52:20.668Z,16.47
2018-02-23T09:54:49.063Z,15.33
2018-02-23T09:57:16.731Z,17.80
2018-02-23T09:59:44.532Z,16.00
2018-02-23T10:02:12.154Z,15.77
2018-02-23T10:04:39.777Z,17.80
2018-02-23T10:07:08.213Z,15.17
2018-02-23T10:09:36.774Z,16.77
2018-02-23T10:12:04.366Z,16.13
2018-02-23T10:14:31.995Z,16.37
2018-02-23T10:16:59.650Z,16.50
2018-02-23T10:19:27.766Z,17.13
2018-02-23T10:21:55.918Z,15.00
2018-02-23T10:24:23.636Z,17.43
2018-02-23T10:26:52.246Z,16.40
2018-02-23T10:29:20.110Z,13.77
2018-02-23T10:31:47.747Z,15.77
2018-02-23T10:34:16.321Z,16.00
2018-02-23T10:36:44.762Z,15.63
2018-02-23T10:39:12.548Z,14.87
2018-02-23T10:41:40.280Z,14.63
2018-02-23T10:44:07.890Z,15.80
2018-02-23T10:46:37.010Z,15.37
2018-02-23T10:49:04.797Z,13.90
2018-02-23T10:51:32.464Z,15.23
2018-02-23T10:54:00.080Z,13.30
2018-02-23T10:56:28.624Z,15.17
2018-02-23T10:58:57.818Z,15.97
2018-02-23T11:01:25.558Z,14.20
2018-02-23T11:03:53.230Z,17.03
2018-02-23T11:06:20.961Z,14.33
2018-02-23T11:08:48.580Z,14.73
2018-02-23T11:11:16.279Z,15.93
2018-02-23T11:13:43.881Z,15.87
2018-02-23T11:16:11.500Z,16.80
2018-02-23T11:18:39.190Z,14.10
2018-02-23T11:21:06.758Z,16.47
2018-02-23T11:23:34.392Z,13.37
2018-02-23T11:26:02.014Z,16.70
2018-02-23T11:28:30.448Z,15.50
2018-02-23T11:30:58.297Z,14.00
2018-02-23T11:33:25.905Z,14.50
2018-02-23T11:35:54.171Z,15.83
2018-02-23T11:38:21.817Z,14.47
2018-02-23T11:40:49.461Z,15.30
2018-02-23T11:43:17.122Z,13.50
2018-02-23T11:45:44.717Z,14.63
2018-02-23T11:48:13.133Z,14.40
2018-02-23T11:50:40.786Z,13.90
2018-02-23T11:53:09.173Z,15.03
2018-02-23T11:55:36.918Z,14.60
2018-02-23T11:58:08.181Z,14.17
2018-02-23T12:00:35.887Z,14.80
2018-02-23T12:03:03.658Z,15.10
2018-02-23T12:05:31.425Z,15.77
2018-02-23T12:07:59.087Z,14.57
2018-02-23T12:10:27.473Z,16.83
2018-02-23T12:12:55.177Z,16.40
2018-02-23T12:15:22.793Z,14.63
2018-02-23T12:17:50.522Z,14.63
2018-02-23T12:20:18.161Z,14.73
2018-02-23T12:22:45.771Z,16.13
2018-02-23T12:25:13.373Z,15.63
2018-02-23T12:27:41.046Z,15.13
2018-02-23T12:30:08.662Z,15.83
2018-02-23T12:32:36.716Z,15.90
2018-02-23T12:35:04.423Z,15.10
2018-02-23T12:37:32.639Z,15.10
2018-02-23T12:40:00.894Z,13.37
2018-02-23T12:42:29.878Z,14.53
2018-02-23T12:44:57.471Z,14.07
2018-02-23T12:47:25.078Z,15.27
2018-02-23T12:49:52.717Z,15.67
2018-02-23T12:52:21.125Z,18.63
2018-02-23T12:54:48.738Z,16.10
2018-02-23T12:57:17.048Z,14.77
2018-02-23T12:59:44.769Z,15.40
2018-02-23T13:02:12.444Z,16.00
2018-02-23T13:04:40.157Z,14.77
2018-02-23T13:07:07.860Z,16.60
2018-02-23T13:09:35.532Z,14.47
2018-02-23T13:12:03.982Z,15.57
2018-02-23T13:14:37.543Z,16.53
2018-02-23T13:17:06.070Z,15.70
2018-02-23T13:19:33.664Z,16.90
2018-02-23T13:22:01.341Z,16.90
2018-02-23T13:24:29.695Z,16.87
2018-02-23T13:27:03.166Z,16.67
2018-02-23T13:29:30.757Z,17.30
2018-02-23T13:31:58.477Z,16.90
2018-02-23T13:34:26.114Z,16.83
2018-02-23T13:36:53.782Z,17.30
2018-02-23T13:39:21.424Z,16.70
2018-02-23T13:41:49.825Z,16.23
2018-02-23T13:44:17.572Z,17.03
2018-02-23T13:46:45.204Z,16.27
2018-02-23T13:49:13.647Z,16.30
2018-02-23T13:51:41.269Z,16.00
2018-02-23T13:54:15.410Z,15.17
2018-02-23T13:56:43.055Z,15.53
2018-02-23T13:59:10.666Z,14.97
2018-02-23T14:01:38.279Z,14.37
2018-02-23T14:04:05.916Z,13.53
2018-02-23T14:06:34.415Z,14.43
2018-02-23T14:09:02.063Z,14.73
2018-02-23T14:11:29.857Z,13.43
2018-02-23T14:13:57.661Z,14.20
2018-02-23T14:16:25.293Z,14.53
2018-02-23T14:18:52.902Z,15.83
2018-02-23T14:21:21.319Z,13.07
2018-02-23T14:23:49.295Z,12.97
2018-02-23T14:26:16.914Z,14.10
2018-02-23T14:28:44.556Z,14.30
2018-02-23T14:31:12.216Z,14.43
2018-02-23T14:33:39.860Z,14.93
2018-02-23T14:36:07.569Z,14.47
2018-02-23T14:38:35.244Z,14.03
2018-02-23T14:41:02.888Z,14.90
2018-02-23T14:43:30.485Z,13.77
2018-02-23T14:45:58.118Z,15.43
2018-02-23T14:48:37.466Z,15.87
2018-02-23T14:51:11.810Z,15.93
2018-02-23T14:53:39.457Z,15.37
2018-02-23T14:56:07.123Z,14.80
2018-02-23T14:58:34.828Z,15.33
2018-02-23T15:01:03.180Z,15.87
2018-02-23T15:03:30.874Z,15.70
2018-02-23T15:05:59.255Z,14.23
2018-02-23T15:08:26.838Z,16.83
2018-02-23T15:10:54.518Z,16.03
2018-02-23T15:13:22.171Z,15.47
2018-02-23T15:15:49.832Z,15.23
2018-02-23T15:18:17.458Z,15.93
2018-02-23T15:20:45.895Z,14.93
2018-02-23T15:23:13.507Z,16.03
2018-02-23T15:25:41.131Z,15.30
2018-02-23T15:28:09.497Z,14.50
2018-02-23T15:30:49.123Z,15.57
2018-02-23T15:33:16.804Z,13.73
2018-02-23T15:35:44.454Z,15.70
2018-02-23T15:38:12.073Z,13.97
2018-02-23T15:40:39.688Z,14.80
2018-02-23T15:43:07.317Z,14.70
2018-02-23T15:45:34.911Z,14.67
2018-02-23T15:48:13.983Z,14.20
2018-02-23T15:50:47.132Z,14.23
2018-02-23T15:53:15.589Z,12.40
2018-02-23T15:55:43.191Z,12.43
2018-02-23T15:58:22.454Z,12.30
2018-02-23T16:00:50.127Z,11.57
2018-02-23T16:03:17.790Z,10.63
2018-02-23T16:05:45.402Z,10.07
2018-02-23T16:08:13.896Z,10.03
2018-02-23T16:10:42.540Z,10.10
2018-02-23T16:13:10.165Z,10.90
2018-02-23T16:15:38.727Z,10.33
2018-02-23T16:18:06.339Z,9.87
2018-02-23T16:20:33.940Z,10.20
2018-02-23T16:23:01.551Z,9.47
2018-02-23T16:25:29.160Z,9.47
2018-02-23T16:27:56.798Z,9.37
2018-02-23T16:30:25.178Z,9.57
2018-02-23T16:32:53.533Z,9.03
2018-02-23T16:35:21.174Z,8.93
2018-02-23T16:37:48.807Z,10.00
2018-02-23T16:40:16.464Z,9.50
2018-02-23T16:42:44.073Z,8.63
2018-02-23T16:45:11.669Z,9.77
2018-02-23T16:47:40.052Z,8.10
2018-02-23T16:50:08.379Z,9.60
2018-02-23T16:52:35.995Z,8.17
2018-02-23T16:55:03.617Z,8.67
2018-02-23T16:57:31.232Z,9.07
2018-02-23T16:59:58.915Z,9.30
2018-02-23T17:02:26.519Z,9.50
2018-02-23T17:04:54.884Z,9.90
2018-02-23T17:07:22.558Z,10.30
2018-02-23T17:09:50.929Z,10.20
2018-02-23T17:12:19.944Z,10.20
2018-02-23T17:14:47.572Z,10.03
2018-02-23T17:17:15.178Z,10.13
2018-02-23T17:19:42.810Z,11.83
2018-02-23T17:22:11.187Z,10.70
2018-02-23T17:24:39.592Z,10.43
2018-02-23T17:27:07.227Z,10.73
2018-02-23T17:29:35.688Z,10.00
2018-02-23T17:32:03.315Z,10.07
2018-02-23T17:34:31.794Z,10.20
2018-02-23T17:36:59.447Z,12.77
2018-02-23T17:39:27.081Z,10.03
2018-02-23T17:41:54.676Z,9.93
2018-02-23T17:44:22.332Z,9.80
2018-02-23T17:46:49.951Z,10.17
2018-02-23T17:49:17.657Z,9.67
2018-02-23T17:51:45.340Z,9.97
2018-02-23T17:54:12.979Z,10.10
2018-02-23T17:56:40.634Z,9.53
2018-02-23T17:59:08.260Z,10.27
2018-02-23T18:01:36.110Z,10.53
2018-02-23T18:04:04.508Z,11.33
2018-02-23T18:06:32.341Z,9.03
2018-02-23T18:09:00.256Z,9.57
2018-02-23T18:11:27.867Z,9.63
2018-02-23T18:13:55.494Z,9.23
2018-02-23T18:16:23.182Z,8.87
2018-02-23T18:18:50.859Z,8.97
2018-02-23T18:21:18.480Z,9.33
2018-02-23T18:23:46.111Z,10.23
2018-02-23T18:26:14.441Z,9.73
2018-02-23T18:28:42.095Z,9.37
2018-02-23T18:31:10.472Z,9.27
2018-02-23T18:33:39.018Z,8.93
2018-02-23T18:36:07.556Z,8.87
2018-02-23T18:38:35.182Z,8.43
2018-02-23T18:41:02.827Z,8.10
2018-02-23T18:43:30.594Z,10.20
2018-02-23T18:45:58.225Z,8.17
2018-02-23T18:48:25.927Z,8.97
2018-02-23T18:50:53.615Z,8.80
2018-02-23T18:53:21.991Z,9.00
2018-02-23T18:55:50.391Z,9.30
2018-02-23T18:58:18.830Z,10.13
2018-02-23T19:00:46.451Z,8.73
2018-02-23T19:03:14.095Z,9.93
2018-02-23T19:05:42.559Z,9.57
2018-02-23T19:08:11.047Z,9.67
2018-02-23T19:10:39.456Z,9.67
2018-02-23T19:13:07.171Z,8.77
2018-02-23T19:15:34.780Z,8.50
2018-02-23T19:18:02.373Z,8.20
2018-02-23T19:20:30.036Z,8.97
2018-02-23T19:22:57.660Z,9.30
2018-02-23T19:25:25.270Z,9.03
2018-02-23T19:27:52.917Z,10.63
2018-02-23T19:30:20.692Z,9.63
2018-02-23T19:32:48.341Z,9.07
2018-02-23T19:35:15.996Z,9.70
2018-02-23T19:37:43.621Z,10.23
2018-02-23T19:40:11.250Z,9.87
2018-02-23T19:42:40.017Z,9.63
2018-02-23T19:45:07.656Z,8.97
2018-02-23T19:47:35.574Z,10.13
2018-02-23T19:50:03.259Z,10.33
2018-02-23T19:52:31.015Z,10.03
2018-02-23T19:54:58.638Z,10.03
2018-02-23T19:57:26.263Z,10.57
2018-02-23T19:59:55.076Z,9.83
2018-02-23T20:02:22.820Z,9.17
2018-02-23T20:04:50.810Z,10.27
2018-02-23T20:07:18.441Z,10.27
2018-02-23T20:09:46.085Z,9.97
2018-02-23T20:12:13.779Z,10.07
2018-02-23T20:14:41.394Z,9.80
2018-02-23T20:17:09.640Z,9.70
2018-02-23T20:19:37.233Z,9.57
2018-02-23T20:22:04.838Z,10.37
2018-02-23T20:24:32.519Z,8.87
2018-02-23T20:27:02.018Z,10.23
2018-02-23T20:29:31.197Z,9.93
2018-02-23T20:32:00.014Z,9.43
2018-02-23T20:34:28.735Z,9.47
2018-02-23T20:36:57.189Z,10.00
2018-02-23T20:39:26.692Z,10.33
2018-02-23T20:41:55.048Z,9.97
2018-02-23T20:44:22.738Z,11.47
2018-02-23T20:46:51.168Z,10.17
2018-02-23T20:49:18.777Z,9.60
2018-02-23T20:51:47.172Z,10.00
2018-02-23T20:54:15.028Z,9.03
2018-02-23T20:56:42.689Z,10.20
2018-02-23T20:59:10.309Z,9.17
2018-02-23T21:01:37.924Z,10.77
2018-02-23T21:04:05.796Z,10.93
2018-02-23T21:06:33.406Z,9.50
2018-02-23T21:09:01.948Z,9.77
2018-02-23T21:11:29.675Z,9.87
2018-02-23T21:13:57.343Z,10.10
2018-02-23T21:16:24.933Z,9.50
2018-02-23T21:18:52.594Z,8.93
2018-02-23T21:21:20.576Z,10.27
2018-02-23T21:23:48.223Z,9.23
2018-02-23T21:26:15.819Z,9.70
2018-02-23T21:28:43.631Z,8.87
2018-02-23T21:31:11.425Z,10.07
2018-02-23T21:33:39.248Z,9.17
2018-02-23T21:36:07.330Z,11.20
2018-02-23T21:38:35.065Z,9.70
2018-02-23T21:41:03.502Z,10.27
2018-02-23T21:43:31.125Z,11.13
2018-02-23T21:45:58.769Z,11.03
2018-02-23T21:48:27.164Z,10.67
2018-02-23T21:50:55.040Z,11.73
2018-02-23T21:53:22.752Z,12.87
2018-02-23T21:55:50.389Z,12.37
2018-02-23T21:58:18.042Z,11.53
2018-02-23T22:00:46.486Z,13.23
2018-02-23T22:03:14.095Z,12.43
2018-02-23T22:05:41.697Z,13.53
2018-02-23T22:08:09.329Z,13.97
2018-02-23T22:10:37.786Z,13.87
2018-02-23T22:13:05.435Z,14.20
2018-02-23T22:15:33.097Z,13.70
2018-02-23T22:18:00.752Z,13.33
2018-02-23T22:20:28.347Z,13.00
2018-02-23T22:22:55.995Z,12.10
2018-02-23T22:25:23.674Z,13.37
2018-02-23T22:27:51.370Z,13.40
2018-02-23T22:30:18.974Z,13.90
2018-02-23T22:32:46.593Z,13.20
2018-02-23T22:35:14.263Z,12.87
2018-02-23T22:37:41.876Z,13.03
2018-02-23T22:40:09.560Z,13.17
2018-02-23T22:42:37.957Z,13.77
2018-02-23T22:45:05.567Z,12.90
2018-02-23T22:47:33.248Z,12.97
2018-02-23T22:50:01.617Z,13.27
2018-02-23T22:52:29.991Z,12.73
2018-02-23T22:54:57.655Z,13.43
2018-02-23T22:57:25.306Z,13.97
2018-02-23T22:59:52.930Z,13.23
2018-02-23T23:02:21.347Z,12.63
2018-02-23T23:04:49.018Z,12.63
2018-02-23T23:07:16.679Z,13.13
2018-02-23T23:09:44.396Z,12.67
2018-02-23T23:12:12.216Z,12.80
2018-02-23T23:14:40.690Z,13.30
2018-02-23T23:17:09.077Z,13.57
2018-02-23T23:19:37.510Z,13.00
2018-02-23T23:22:05.164Z,12.63
2018-02-23T23:24:32.801Z,12.43
2018-02-23T23:27:00.436Z,12.70
2018-02-23T23:29:28.850Z,11.50
2018-02-23T23:31:56.457Z,12.73
2018-02-23T23:34:24.091Z,12.87
2018-02-23T23:36:51.761Z,12.27
2018-02-23T23:39:19.365Z,11.83
2018-02-23T23:41:47.899Z,12.53
2018-02-23T23:44:15.611Z,12.43
2018-02-23T23:46:44.041Z,12.27
2018-02-23T23:49:11.758Z,12.23
2018-02-23T23:51:39.406Z,12.90
2018-02-23T23:54:07.639Z,13.00
2018-02-23T23:56:35.572Z,11.90
2018-02-23T23:59:03.619Z,12.03
